Time;durP1;ratioP1;P1;durP2;ratioP2;P2;SDS_P1;SDS_P2;PMS_P1;PMS_P2;Temp;Humidity;BMP_temperature;BMP_pressure;BME280_temperature;BME280_humidity;BME280_pressure;Samples;Min_cycle;Max_cycle;Signal;HPM_P1;HPM_P2
2024/03/22 00:01:45;;;;;;;8.52;6.00;;;;;;;9.21;64.86;97379.31;5016252;28;20069;-77
2024/03/22 00:04:12;;;;;;;9.95;6.20;;;;;;;9.18;65.07;97382.22;5015871;28;20057;-78
2024/03/22 00:06:38;;;;;;;6.45;5.15;;;;;;;9.17;64.73;97387.56;5015881;28;20045;-77
2024/03/22 00:09:05;;;;;;;7.55;5.88;;;;;;;9.11;64.92;97377.78;5015426;28;20057;-77
2024/03/22 00:11:30;;;;;;;7.45;5.22;;;;;;;9.07;64.85;97378.09;5015103;28;20057;-77
2024/03/22 00:13:57;;;;;;;7.80;5.60;;;;;;;9.03;65.02;97370.72;5015415;28;20092;-77
2024/03/22 00:16:24;;;;;;;7.05;5.45;;;;;;;8.98;65.51;97372.97;5015518;28;20069;-77
2024/03/22 00:18:51;;;;;;;5.88;5.05;;;;;;;8.95;65.33;97362.88;5015915;28;20406;-77
2024/03/22 00:21:16;;;;;;;9.05;5.13;;;;;;;8.91;65.21;97361.53;5015522;28;20060;-78
2024/03/22 00:23:43;;;;;;;6.97;5.50;;;;;;;8.86;65.39;97359.41;5015795;28;20140;-77
2024/03/22 00:26:09;;;;;;;8.68;5.65;;;;;;;8.82;65.35;97358.06;5027243;28;20073;-77
2024/03/22 00:28:36;;;;;;;7.75;5.30;;;;;;;8.79;65.34;97363.56;5028955;28;20053;-78
2024/03/22 00:31:01;;;;;;;6.97;5.25;;;;;;;8.75;65.33;97352.66;5030335;28;20061;-77
2024/03/22 00:33:29;;;;;;;8.05;4.70;;;;;;;8.69;65.38;97349.84;5022461;28;20060;-77
2024/03/22 00:35:55;;;;;;;7.78;4.90;;;;;;;8.63;65.38;97341.66;5015537;28;20057;-77
2024/03/22 00:38:22;;;;;;;6.75;5.10;;;;;;;8.60;65.49;97343.75;5015758;28;20055;-77
2024/03/22 00:40:47;;;;;;;7.53;5.32;;;;;;;8.56;65.47;97343.25;5015091;28;20429;-77
2024/03/22 00:43:14;;;;;;;5.60;4.78;;;;;;;8.54;65.50;97339.16;5015323;28;20057;-77
2024/03/22 00:45:40;;;;;;;6.90;4.97;;;;;;;8.51;65.65;97342.06;5015195;28;20068;-77
2024/03/22 00:48:07;;;;;;;6.50;5.05;;;;;;;8.48;65.47;97343.16;5014587;28;20053;-77
2024/03/22 00:50:34;;;;;;;6.80;5.32;;;;;;;8.44;65.66;97326.25;5015274;28;20433;-77
2024/03/22 00:53:02;;;;;;;10.45;5.95;;;;;;;8.43;65.60;97332.41;5015020;28;20061;-76
2024/03/22 00:55:28;;;;;;;6.60;4.97;;;;;;;8.40;65.67;97328.34;5014897;28;20104;-77
2024/03/22 00:57:55;;;;;;;7.20;5.03;;;;;;;8.38;65.92;97324.22;5014281;28;20456;-77
2024/03/22 01:00:21;;;;;;;5.55;4.68;;;;;;;8.37;66.04;97317.38;5014657;28;20049;-78
2024/03/22 01:02:47;;;;;;;9.68;5.22;;;;;;;8.35;65.51;97314.09;5015016;28;20087;-77
2024/03/22 01:05:14;;;;;;;7.60;4.68;;;;;;;8.34;66.20;97307.28;5014842;28;20045;-77
2024/03/22 01:07:42;;;;;;;7.10;4.47;;;;;;;8.34;65.74;97305.50;5014173;28;20205;-77
2024/03/22 01:10:08;;;;;;;8.27;5.25;;;;;;;8.32;65.71;97296.22;5014354;28;20064;-77
2024/03/22 01:12:35;;;;;;;7.55;3.92;;;;;;;8.28;65.66;97292.28;5014595;28;20049;-77
2024/03/22 01:15:01;;;;;;;9.93;5.57;;;;;;;8.28;66.02;97290.50;5014762;28;20064;-77
2024/03/22 01:17:27;;;;;;;8.52;4.32;;;;;;;8.30;65.85;97290.34;5014389;28;20057;-77
2024/03/22 01:19:53;;;;;;;10.73;5.53;;;;;;;8.33;65.91;97292.63;5014646;28;20501;-77
2024/03/22 01:22:19;;;;;;;7.60;5.07;;;;;;;8.30;65.40;97285.97;5014821;28;20060;-77
2024/03/22 01:24:47;;;;;;;10.73;6.22;;;;;;;8.22;65.41;97289.34;5014405;28;20061;-77
2024/03/22 01:27:14;;;;;;;13.80;7.20;;;;;;;8.20;65.30;97282.66;5014265;28;20080;-78
2024/03/22 01:29:39;;;;;;;16.65;6.53;;;;;;;8.19;65.67;97278.41;5014490;28;20345;-77
2024/03/22 01:32:07;;;;;;;12.25;6.32;;;;;;;8.18;65.68;97276.78;5014582;28;20068;-77
2024/03/22 01:34:32;;;;;;;8.73;5.28;;;;;;;8.14;65.64;97283.25;5014601;28;20065;-77
2024/03/22 01:36:59;;;;;;;15.65;5.25;;;;;;;8.07;65.90;97280.44;5014004;28;20057;-77
2024/03/22 01:39:25;;;;;;;7.65;5.22;;;;;;;8.03;65.97;97279.09;5014450;28;20049;-77
2024/03/22 01:41:53;;;;;;;6.10;4.63;;;;;;;8.00;65.99;97282.81;5014152;28;20579;-78
2024/03/22 01:44:19;;;;;;;7.13;4.55;;;;;;;7.96;65.96;97283.22;5014166;28;20057;-77
2024/03/22 01:46:48;;;;;;;5.85;4.00;;;;;;;7.95;65.97;97286.81;5014242;28;20057;-77
2024/03/22 01:49:15;;;;;;;7.70;4.10;;;;;;;7.89;65.96;97288.19;5014330;28;20060;-77
2024/03/22 01:51:43;;;;;;;5.00;3.92;;;;;;;7.83;65.84;97292.22;5014331;28;20104;-77
2024/03/22 01:54:09;;;;;;;6.65;4.28;;;;;;;7.78;66.05;97286.66;5014178;28;20406;-77
2024/03/22 01:56:38;;;;;;;7.95;3.97;;;;;;;7.77;66.04;97279.81;5014147;28;20057;-77
2024/03/22 01:59:06;;;;;;;6.05;4.18;;;;;;;7.76;66.28;97277.34;5014197;28;20050;-77
2024/03/22 02:01:32;;;;;;;6.30;3.67;;;;;;;7.74;66.12;97274.94;5014408;28;20068;-77
2024/03/22 02:03:59;;;;;;;6.70;4.00;;;;;;;7.74;65.97;97268.91;5022613;28;20053;-77
2024/03/22 02:06:25;;;;;;;4.65;3.22;;;;;;;7.72;65.71;97266.47;5028008;28;20057;-77
2024/03/22 02:08:51;;;;;;;7.70;3.80;;;;;;;7.74;65.57;97269.72;5024256;28;20063;-77
2024/03/22 02:11:18;;;;;;;5.50;3.90;;;;;;;7.75;66.42;97266.16;5014693;28;20050;-77
2024/03/22 02:13:44;;;;;;;6.82;3.92;;;;;;;7.79;66.33;97264.09;5014146;28;20057;-77
2024/03/22 02:16:12;;;;;;;5.47;3.85;;;;;;;7.82;65.80;97259.41;5014388;28;20068;-78
2024/03/22 02:18:38;;;;;;;5.90;3.90;;;;;;;7.86;65.52;97264.31;5014217;28;20058;-77
2024/03/22 02:21:05;;;;;;;4.68;3.63;;;;;;;7.89;65.25;97256.22;5017162;28;20107;-77
2024/03/22 02:23:34;;;;;;;3.75;3.08;;;;;;;7.94;67.40;97256.59;5018385;28;20053;-77
2024/03/22 02:26:00;;;;;;;3.80;3.00;;;;;;;8.05;67.73;97251.19;5017576;28;20536;-77
2024/03/22 02:28:26;;;;;;;7.28;4.20;;;;;;;8.11;65.44;97253.19;5017735;28;20053;-77
2024/03/22 02:30:53;;;;;;;4.72;3.72;;;;;;;8.10;64.82;97238.53;5017917;28;20056;-77
2024/03/22 02:33:19;;;;;;;8.77;3.75;;;;;;;8.06;64.40;97237.22;5017662;28;20060;-78
2024/03/22 02:35:47;;;;;;;7.43;3.78;;;;;;;8.01;64.02;97245.47;5017556;28;20081;-77
2024/03/22 02:38:12;;;;;;;5.78;3.90;;;;;;;7.94;64.24;97241.03;5017665;28;20050;-78
2024/03/22 02:40:40;;;;;;;6.75;3.67;;;;;;;7.86;64.28;97240.94;5017194;28;20103;-77
2024/03/22 02:43:07;;;;;;;5.50;3.22;;;;;;;7.80;64.42;97232.75;5017655;28;20080;-77
2024/03/22 02:45:33;;;;;;;6.40;3.65;;;;;;;7.76;64.67;97230.59;5017499;28;20080;-77
2024/03/22 02:47:59;;;;;;;10.65;4.25;;;;;;;7.73;64.56;97223.94;5017126;28;20461;-77
2024/03/22 02:50:25;;;;;;;10.45;3.90;;;;;;;7.72;64.36;97224.91;5017196;28;20072;-77
2024/03/22 02:52:52;;;;;;;6.80;3.90;;;;;;;7.73;64.84;97220.53;5017668;28;20088;-77
2024/03/22 02:55:18;;;;;;;5.95;3.80;;;;;;;7.72;64.50;97211.94;5016947;28;20539;-77
2024/03/22 02:57:45;;;;;;;7.53;3.90;;;;;;;7.72;64.47;97224.06;5016894;28;20057;-77
2024/03/22 03:00:12;;;;;;;8.52;4.35;;;;;;;7.68;64.18;97215.78;5017288;28;20398;-77
2024/03/22 03:02:39;;;;;;;7.10;3.75;;;;;;;7.66;64.31;97225.50;5017287;28;20084;-77
2024/03/22 03:05:05;;;;;;;8.27;4.53;;;;;;;7.60;64.09;97221.69;5016710;28;20049;-77
2024/03/22 03:07:32;;;;;;;5.28;3.70;;;;;;;7.58;64.42;97217.63;5016611;28;20054;-77
2024/03/22 03:09:58;;;;;;;5.53;4.25;;;;;;;7.58;64.45;97215.03;5017211;28;20056;-77
2024/03/22 03:12:24;;;;;;;6.50;4.07;;;;;;;7.57;64.25;97210.81;5017064;28;20119;-77
2024/03/22 03:14:51;;;;;;;7.78;4.20;;;;;;;7.55;64.51;97212.75;5016914;28;20053;-77
2024/03/22 03:17:18;;;;;;;5.53;3.95;;;;;;;7.53;64.63;97204.28;5016677;28;20107;-77
2024/03/22 03:19:44;;;;;;;5.22;4.28;;;;;;;7.53;64.77;97206.88;5016584;28;20060;-78
2024/03/22 03:22:10;;;;;;;6.78;4.43;;;;;;;7.54;64.63;97200.72;5016478;28;20057;-78
2024/03/22 03:24:36;;;;;;;7.00;4.72;;;;;;;7.52;64.71;97197.44;5016671;28;20057;-78
2024/03/22 03:27:03;;;;;;;5.72;4.20;;;;;;;7.51;64.72;97206.22;5016374;28;20056;-77
2024/03/22 03:29:29;;;;;;;7.50;4.80;;;;;;;7.50;64.57;97199.38;5016851;28;20600;-77
2024/03/22 03:31:56;;;;;;;6.93;4.40;;;;;;;7.47;64.78;97194.47;5015628;28;20081;-77
2024/03/22 03:34:22;;;;;;;8.32;4.60;;;;;;;7.44;64.66;97190.41;5016319;28;20552;-77
2024/03/22 03:36:49;;;;;;;7.25;5.05;;;;;;;7.41;65.15;97181.13;5016377;28;20136;-77
2024/03/22 03:39:14;;;;;;;8.30;4.97;;;;;;;7.39;65.21;97184.81;5016472;28;20050;-77
2024/03/22 03:41:41;;;;;;;7.88;5.32;;;;;;;7.38;64.96;97180.59;5016432;28;20073;-77
2024/03/22 03:44:07;;;;;;;8.77;5.53;;;;;;;7.38;65.41;97178.00;5016415;28;20461;-78
2024/03/22 03:46:33;;;;;;;7.65;5.15;;;;;;;7.37;65.58;97179.00;5016029;28;20060;-77
2024/03/22 03:49:00;;;;;;;8.32;5.82;;;;;;;7.34;65.25;97172.28;5016295;28;20060;-77
2024/03/22 03:51:27;;;;;;;8.65;6.10;;;;;;;7.32;65.45;97171.63;5016062;28;20115;-78
2024/03/22 03:53:53;;;;;;;8.73;6.03;;;;;;;7.30;65.76;97172.72;5016130;28;20459;-77
2024/03/22 03:56:19;;;;;;;11.63;6.93;;;;;;;7.25;66.09;97170.56;5015817;28;20064;-77
2024/03/22 03:58:46;;;;;;;8.75;6.35;;;;;;;7.21;66.17;97170.06;5088091;23;20045;-82
2024/03/22 04:01:22;;;;;;;11.43;6.80;;;;;;;7.21;66.48;97172.66;5020068;28;20049;-82
2024/03/22 04:25:02;;;;;;;11.18;6.53;;;;;;;7.50;69.49;97194.16;5037711;28;20049;-82
2024/03/22 05:01:29;;;;;;;12.65;7.88;;;;;;;7.89;65.73;97194.69;4937360;29;20115;-81
2024/03/22 05:04:45;;;;;;;11.50;7.70;;;;;;;7.76;65.65;97200.28;4957033;29;20055;-81
2024/03/22 05:08:04;;;;;;;11.13;7.65;;;;;;;7.67;66.79;97201.16;4969032;28;20082;-81
2024/03/22 05:25:39;;;;;;;15.40;9.02;;;;;;;7.35;67.69;97183.50;4958641;29;20055;-81
2024/03/22 05:28:07;;;;;;;12.15;8.43;;;;;;;7.34;67.37;97185.25;4959814;28;20051;-80
2024/03/22 05:30:35;;;;;;;15.55;9.70;;;;;;;7.35;68.26;97186.91;4961932;28;20063;-80
2024/03/22 05:33:01;;;;;;;12.57;9.15;;;;;;;7.37;67.62;97179.00;4981734;28;20057;-82
2024/03/22 05:35:28;;;;;;;13.00;8.68;;;;;;;7.31;67.62;97174.38;4997216;28;20054;-83
2024/03/22 05:37:54;;;;;;;12.77;9.00;;;;;;;7.27;67.58;97173.03;5007521;28;20047;-82
2024/03/22 05:40:21;;;;;;;16.10;10.15;;;;;;;7.18;67.36;97172.13;4977229;28;20521;-80
2024/03/22 05:42:47;;;;;;;17.88;10.13;;;;;;;7.09;67.59;97167.81;4993685;28;20046;-81
2024/03/22 05:45:15;;;;;;;14.80;9.35;;;;;;;7.01;68.20;97169.34;4976536;28;20525;-81
2024/03/22 05:47:41;;;;;;;17.23;9.93;;;;;;;6.93;68.39;97169.28;4976944;28;20058;-81
2024/03/22 05:50:09;;;;;;;18.00;10.77;;;;;;;6.89;68.39;97164.53;4992916;28;20058;-81
2024/03/22 05:52:36;;;;;;;18.92;10.10;;;;;;;6.87;68.80;97159.47;4991541;28;20065;-81
2024/03/22 05:55:05;;;;;;;15.88;9.77;;;;;;;6.88;69.00;97161.09;4959775;28;20427;-83
2024/03/22 05:57:32;;;;;;;16.35;10.57;;;;;;;6.89;68.97;97157.56;4961471;28;20051;-80
2024/03/22 06:03:57;;;;;;;16.67;11.15;;;;;;;6.94;69.75;97150.16;4845742;29;20057;-81
2024/03/22 06:06:25;;;;;;;19.60;10.65;;;;;;;6.95;69.53;97149.19;4867884;29;20053;-80
2024/03/22 06:08:54;;;;;;;14.02;10.02;;;;;;;6.99;69.63;97149.72;4973449;28;20051;-78
2024/03/22 06:11:21;;;;;;;18.40;11.15;;;;;;;7.00;69.68;97143.56;4960418;28;20051;-79
2024/03/22 06:13:48;;;;;;;18.02;10.85;;;;;;;7.04;70.80;97136.31;4960806;28;20063;-79
2024/03/22 06:16:13;;;;;;;16.95;11.05;;;;;;;7.08;70.64;97137.66;4963760;28;20423;-77
2024/03/22 06:18:40;;;;;;;20.13;10.10;;;;;;;7.18;71.34;97133.22;4975242;28;20063;-78
2024/03/22 06:21:07;;;;;;;17.15;11.70;;;;;;;7.26;70.67;97135.91;4974562;28;20042;-77
2024/03/22 06:23:34;;;;;;;16.33;10.85;;;;;;;7.33;70.46;97126.56;4960152;28;20057;-77
2024/03/22 06:26:00;;;;;;;16.27;10.45;;;;;;;7.43;70.79;97122.09;4960454;28;20058;-77
2024/03/22 06:28:28;;;;;;;15.13;10.50;;;;;;;7.59;71.14;97120.63;4964677;28;20443;-77
2024/03/22 06:30:54;;;;;;;15.63;9.38;;;;;;;7.71;70.80;97118.59;4968335;28;20051;-80
2024/03/22 06:33:21;;;;;;;16.92;11.20;;;;;;;7.79;70.53;97116.88;4960861;28;20503;-79
2024/03/22 06:35:47;;;;;;;16.50;10.27;;;;;;;7.91;70.57;97120.03;4960699;28;20058;-80
2024/03/22 06:38:15;;;;;;;16.42;11.07;;;;;;;7.99;70.17;97116.69;4960444;28;20473;-77
2024/03/22 06:40:41;;;;;;;15.35;10.90;;;;;;;8.06;70.13;97112.50;4960052;28;20046;-77
2024/03/22 06:43:08;;;;;;;17.90;11.35;;;;;;;8.12;70.08;97111.88;4964018;28;20137;-77
2024/03/22 06:45:34;;;;;;;19.33;11.63;;;;;;;8.22;70.10;97107.41;4973696;28;20058;-77
2024/03/22 06:48:01;;;;;;;17.55;10.88;;;;;;;8.38;70.68;97111.06;4975092;28;20109;-77
2024/03/22 06:50:26;;;;;;;18.17;10.80;;;;;;;8.54;70.55;97113.75;4960065;28;20054;-76
2024/03/22 06:52:54;;;;;;;13.85;9.60;;;;;;;8.70;70.29;97119.97;4957376;28;20055;-76
2024/03/22 06:55:21;;;;;;;16.17;11.65;;;;;;;8.80;69.89;97110.28;4963877;28;20066;-77
2024/03/22 06:57:48;;;;;;;15.48;11.00;;;;;;;8.93;70.11;97115.84;4958523;28;20458;-76
2024/03/22 07:00:15;;;;;;;16.00;10.32;;;;;;;9.06;70.44;97113.59;4972955;28;20043;-75
2024/03/22 07:02:42;;;;;;;17.42;11.20;;;;;;;9.16;69.67;97115.22;4964566;28;20055;-76
2024/03/22 07:05:08;;;;;;;13.27;9.90;;;;;;;9.30;70.25;97117.22;4957946;28;20055;-76
2024/03/22 07:07:35;;;;;;;20.00;11.80;;;;;;;9.45;69.17;97118.22;4966187;28;20106;-76
2024/03/22 07:10:01;;;;;;;16.25;11.48;;;;;;;9.62;68.65;97115.59;4963846;28;20054;-76
2024/03/22 07:12:29;;;;;;;14.07;10.38;;;;;;;9.81;68.56;97110.06;4959888;28;20054;-76
2024/03/22 07:14:55;;;;;;;16.15;10.50;;;;;;;9.98;68.81;97115.25;4971175;28;20069;-76
2024/03/22 07:17:24;;;;;;;16.80;10.38;;;;;;;10.13;68.60;97105.78;4962670;28;20050;-75
2024/03/22 07:19:51;;;;;;;16.05;10.40;;;;;;;10.23;67.10;97109.03;4973762;28;20059;-76
2024/03/22 07:22:17;;;;;;;14.20;10.32;;;;;;;10.34;66.70;97104.44;4974935;28;20059;-76
2024/03/22 07:24:43;;;;;;;13.23;9.48;;;;;;;10.47;66.18;97104.72;4971256;28;20059;-76
2024/03/22 07:27:10;;;;;;;20.95;11.10;;;;;;;10.60;65.57;97105.00;4970137;28;20069;-76
2024/03/22 07:29:37;;;;;;;12.45;9.07;;;;;;;10.72;67.53;97103.66;4965693;28;20070;-76
2024/03/22 07:32:04;;;;;;;17.67;10.57;;;;;;;10.91;65.96;97106.81;4963473;28;20054;-78
2024/03/22 07:34:30;;;;;;;17.13;11.52;;;;;;;11.07;65.09;97101.53;4961830;28;20054;-78
2024/03/22 07:36:57;;;;;;;15.25;11.20;;;;;;;11.25;64.48;97103.06;4961103;28;20122;-79
2024/03/22 07:39:22;;;;;;;20.25;12.23;;;;;;;11.42;63.51;97108.97;4959117;28;20046;-78
2024/03/22 07:41:50;;;;;;;19.52;12.20;;;;;;;11.58;63.36;97100.19;4959195;28;20053;-80
2024/03/22 07:44:17;;;;;;;19.95;11.95;;;;;;;11.72;62.48;97100.25;4974001;28;20066;-78
2024/03/22 07:46:45;;;;;;;19.25;12.30;;;;;;;11.86;62.10;97096.03;4956299;28;20051;-78
2024/03/22 07:49:11;;;;;;;19.58;12.00;;;;;;;12.01;61.91;97097.91;4939121;29;20511;-76
2024/03/22 07:51:37;;;;;;;24.73;12.10;;;;;;;12.17;61.84;97089.88;4941709;28;20066;-75
2024/03/22 07:54:03;;;;;;;24.20;11.48;;;;;;;12.41;61.20;97090.63;4959442;28;20062;-76
2024/03/22 07:56:30;;;;;;;20.50;11.82;;;;;;;12.64;60.33;97096.56;4966121;28;20058;-76
2024/03/22 07:58:56;;;;;;;22.35;11.60;;;;;;;12.89;59.87;97098.84;4975648;28;20062;-76
2024/03/22 08:01:23;;;;;;;16.92;11.77;;;;;;;13.16;58.95;97094.72;4968391;28;20047;-76
2024/03/22 08:03:51;;;;;;;16.60;12.05;;;;;;;13.50;57.59;97094.06;4973731;28;20533;-76
2024/03/22 08:06:17;;;;;;;18.10;13.57;;;;;;;13.70;57.29;97094.25;4975411;28;20129;-76
2024/03/22 08:08:43;;;;;;;15.02;11.88;;;;;;;13.69;57.39;97097.88;4958932;28;20059;-76
2024/03/22 08:11:10;;;;;;;17.75;11.63;;;;;;;13.70;57.04;97089.00;4960030;28;20061;-76
2024/03/22 08:13:36;;;;;;;17.15;11.77;;;;;;;13.78;57.47;97093.31;4958990;28;20139;-77
2024/03/22 08:16:02;;;;;;;15.57;10.43;;;;;;;14.01;56.88;97091.28;4983967;28;20079;-76
2024/03/22 08:18:29;;;;;;;16.15;11.10;;;;;;;14.40;55.92;97086.44;4958027;28;20062;-76
2024/03/22 08:20:57;;;;;;;15.75;10.25;;;;;;;14.78;57.36;97081.63;4960929;28;20050;-76
2024/03/22 08:23:22;;;;;;;14.38;10.07;;;;;;;15.59;53.65;97091.31;4966869;28;20061;-76
2024/03/22 08:25:49;;;;;;;15.52;10.15;;;;;;;16.32;52.43;97087.81;4991255;28;20050;-76
2024/03/22 08:28:15;;;;;;;10.95;8.05;;;;;;;17.24;50.76;97085.88;4973749;28;20426;-77
2024/03/22 08:30:43;;;;;;;11.93;8.65;;;;;;;17.60;49.12;97089.69;4960809;28;20588;-76
2024/03/22 08:33:08;;;;;;;13.75;8.70;;;;;;;17.11;50.07;97078.03;4970378;28;20054;-76
2024/03/22 08:35:35;;;;;;;11.70;8.30;;;;;;;16.55;50.55;97074.22;4968735;28;20097;-76
2024/03/22 08:38:03;;;;;;;11.27;8.73;;;;;;;16.14;51.93;97085.03;4962501;28;20062;-76
2024/03/22 08:40:29;;;;;;;13.50;8.02;;;;;;;15.91;52.46;97074.94;4967000;28;20046;-76
2024/03/22 08:42:55;;;;;;;10.93;8.05;;;;;;;15.80;52.72;97073.72;4994085;28;20064;-77
2024/03/22 08:45:22;;;;;;;15.35;9.23;;;;;;;15.71;52.35;97069.66;4978759;28;20050;-78
2024/03/22 08:47:47;;;;;;;12.70;8.95;;;;;;;15.66;52.46;97063.19;4977339;28;20054;-76
2024/03/22 08:50:14;;;;;;;10.90;8.45;;;;;;;15.71;53.32;97059.97;4994720;28;20051;-76
2024/03/22 08:52:40;;;;;;;10.25;8.13;;;;;;;15.92;53.85;97066.84;4996627;28;20046;-76
2024/03/22 08:55:08;;;;;;;13.45;8.75;;;;;;;16.17;52.62;97063.56;4991929;28;20541;-76
2024/03/22 08:57:34;;;;;;;10.43;7.78;;;;;;;16.41;52.00;97060.25;4969839;28;20050;-76
2024/03/22 09:00:01;;;;;;;9.63;8.35;;;;;;;16.67;51.75;97061.19;4978375;28;20494;-76
2024/03/22 09:02:26;;;;;;;10.35;7.88;;;;;;;16.91;51.37;97048.34;4983995;28;20069;-77
2024/03/22 09:04:54;;;;;;;11.80;8.27;;;;;;;17.10;50.43;97047.44;4994762;28;20498;-76
2024/03/22 09:07:20;;;;;;;12.00;8.02;;;;;;;17.28;49.89;97052.78;4957613;28;20515;-76
2024/03/22 09:09:46;;;;;;;10.68;7.90;;;;;;;17.48;49.01;97051.84;4961716;28;20117;-76
2024/03/22 09:12:13;;;;;;;9.25;7.50;;;;;;;17.65;48.39;97052.91;4968338;28;20047;-76
2024/03/22 09:14:40;;;;;;;11.60;7.43;;;;;;;17.82;48.79;97044.47;4967085;28;20062;-76
2024/03/22 09:17:07;;;;;;;10.27;8.15;;;;;;;18.02;47.77;97045.13;4964347;28;20054;-76
2024/03/22 09:19:33;;;;;;;9.07;6.82;;;;;;;18.26;47.18;97042.66;4976867;28;20054;-77
2024/03/22 09:21:59;;;;;;;9.38;7.28;;;;;;;18.48;45.92;97043.81;4976527;28;20061;-77
2024/03/22 09:24:25;;;;;;;8.85;6.38;;;;;;;18.69;45.98;97037.28;4976606;28;20426;-76
2024/03/22 09:26:51;;;;;;;9.88;6.78;;;;;;;18.99;45.12;97033.06;4976500;28;20061;-77
2024/03/22 09:29:19;;;;;;;6.85;6.15;;;;;;;19.24;44.54;97031.06;4975861;28;20663;-76
2024/03/22 09:31:45;;;;;;;9.35;7.07;;;;;;;19.44;43.61;97022.00;4976999;28;20084;-76
2024/03/22 09:34:13;;;;;;;7.30;5.85;;;;;;;19.59;43.64;97022.38;4969292;28;20062;-76
2024/03/22 09:36:38;;;;;;;6.97;6.10;;;;;;;19.73;42.95;97018.50;4958389;28;20109;-77
2024/03/22 09:39:06;;;;;;;8.90;6.25;;;;;;;19.84;42.70;97022.19;4959772;28;20503;-76
2024/03/22 09:41:32;;;;;;;8.57;6.30;;;;;;;19.95;43.59;97025.88;4956789;28;20047;-77
2024/03/22 09:44:00;;;;;;;7.25;5.95;;;;;;;20.04;41.43;97023.69;4957000;28;20530;-77
2024/03/22 09:46:27;;;;;;;5.63;4.70;;;;;;;20.08;40.77;97027.47;4956237;28;20464;-77
2024/03/22 09:48:55;;;;;;;9.25;5.65;;;;;;;20.17;40.87;97023.44;4957352;28;20101;-77
2024/03/22 09:51:21;;;;;;;7.60;5.75;;;;;;;20.17;40.38;97021.59;4976003;28;20713;-76
2024/03/22 09:53:50;;;;;;;7.13;5.93;;;;;;;20.16;40.51;97005.94;4964589;28;20051;-77
2024/03/22 09:56:20;;;;;;;8.85;6.10;;;;;;;20.12;40.79;97010.09;4965903;28;20105;-77
2024/03/22 09:58:47;;;;;;;6.57;5.65;;;;;;;20.14;40.41;97003.53;4994092;23;20054;-76
2024/03/22 10:01:15;;;;;;;6.43;4.95;;;;;;;20.25;40.61;97006.41;4988592;28;20050;-78
2024/03/22 10:03:44;;;;;;;7.55;5.40;;;;;;;20.38;40.33;97006.13;4977599;28;20050;-76
2024/03/22 10:06:09;;;;;;;6.70;4.82;;;;;;;20.60;39.94;96997.56;4990603;28;20046;-76
2024/03/22 10:08:36;;;;;;;9.95;5.38;;;;;;;20.78;39.67;96997.38;4980786;28;20438;-76
2024/03/22 10:11:03;;;;;;;7.55;4.90;;;;;;;20.84;39.67;96985.00;4990898;28;20427;-76
2024/03/22 10:13:29;;;;;;;13.27;6.00;;;;;;;20.88;39.44;96981.66;4975574;28;20062;-76
2024/03/22 10:15:56;;;;;;;6.45;5.25;;;;;;;20.97;39.41;96974.94;4979437;28;20054;-75
2024/03/22 10:18:23;;;;;;;7.22;5.82;;;;;;;21.18;38.55;96980.56;4994942;28;20057;-75
2024/03/22 10:21:00;;;;;;;9.07;6.38;;;;;;;21.30;37.24;96978.66;4995195;28;20054;-76
2024/03/22 10:23:27;;;;;;;7.78;5.28;;;;;;;21.30;38.59;96969.91;5011240;28;20054;-77
2024/03/22 10:25:53;;;;;;;8.50;5.80;;;;;;;21.44;38.07;96955.28;5008313;28;20056;-76
2024/03/22 10:28:19;;;;;;;7.45;5.45;;;;;;;21.62;38.21;96956.88;4995078;28;20058;-77
2024/03/22 10:30:49;;;;;;;6.32;5.30;;;;;;;21.78;37.69;96948.09;4983672;28;20403;-75
2024/03/22 10:33:16;;;;;;;8.35;5.82;;;;;;;21.96;36.82;96949.63;4977474;28;20051;-76
2024/03/22 10:35:43;;;;;;;8.02;5.47;;;;;;;22.01;36.72;96946.25;4993094;28;20057;-76
2024/03/22 10:38:14;;;;;;;11.73;4.88;;;;;;;22.16;36.35;96941.13;4983103;28;20058;-75
2024/03/22 10:40:44;;;;;;;5.05;4.13;;;;;;;22.37;36.32;96944.06;4976910;28;20178;-76
2024/03/22 10:43:11;;;;;;;7.35;4.25;;;;;;;22.44;36.01;96936.69;4979668;28;20065;-76
2024/03/22 10:45:38;;;;;;;6.28;4.90;;;;;;;22.45;35.86;96940.94;4983035;28;20061;-76
2024/03/22 10:48:09;;;;;;;5.93;4.95;;;;;;;22.40;35.49;96932.91;4979656;28;20097;-76
2024/03/22 10:50:38;;;;;;;5.82;4.10;;;;;;;22.32;35.73;96931.50;4979304;28;20081;-76
2024/03/22 10:53:08;;;;;;;5.90;4.47;;;;;;;22.34;34.61;96931.25;4978675;28;20109;-76
2024/03/22 10:55:38;;;;;;;5.57;4.72;;;;;;;22.30;34.48;96930.13;4992223;28;20429;-76
2024/03/22 10:58:05;;;;;;;6.97;4.18;;;;;;;22.26;34.94;96916.56;4986997;28;20065;-76
2024/03/22 11:00:33;;;;;;;4.22;3.30;;;;;;;22.36;35.15;96911.34;4981769;28;20069;-76
2024/03/22 11:03:02;;;;;;;4.63;4.22;;;;;;;22.46;34.77;96915.19;4997669;28;20053;-76
2024/03/22 11:05:28;;;;;;;6.35;4.10;;;;;;;22.41;34.84;96907.94;4994815;28;20056;-77
2024/03/22 11:08:02;;;;;;;6.10;4.75;;;;;;;22.42;34.30;96904.25;4986095;28;20058;-76
2024/03/22 11:10:31;;;;;;;5.43;4.22;;;;;;;22.46;34.94;96899.25;4979822;28;20054;-76
2024/03/22 11:13:03;;;;;;;7.07;4.95;;;;;;;22.52;34.05;96888.41;4988558;28;20054;-76
2024/03/22 11:15:29;;;;;;;;;;;;;;;22.60;34.55;96893.25;4996449;28;20068;-76
2024/03/22 11:17:55;;;;;;;6.55;4.75;;;;;;;22.59;34.81;96888.19;4995801;28;19921;-76
2024/03/22 11:20:21;;;;;;;5.00;4.50;;;;;;;22.52;34.45;96872.47;4985553;28;20069;-77
2024/03/22 11:22:48;;;;;;;7.03;4.10;;;;;;;22.50;35.30;96871.91;4985688;28;20505;-76
2024/03/22 11:25:14;;;;;;;5.97;4.07;;;;;;;22.58;34.82;96871.41;4996160;28;20060;-76
2024/03/22 11:27:41;;;;;;;7.55;4.03;;;;;;;22.71;34.08;96867.56;4988200;28;20048;-77
2024/03/22 11:30:08;;;;;;;5.60;4.43;;;;;;;22.84;33.84;96867.13;4977749;28;20209;-76
2024/03/22 11:32:42;;;;;;;6.95;5.18;;;;;;;22.87;33.90;96857.88;5007348;28;20054;-76
2024/03/22 11:35:09;;;;;;;6.80;4.32;;;;;;;22.90;33.57;96854.69;5008640;28;20060;-82
2024/03/22 11:37:36;;;;;;;5.78;5.18;;;;;;;22.88;33.47;96848.03;4992907;28;20054;-78
2024/03/22 11:40:05;;;;;;;5.15;4.20;;;;;;;22.92;33.94;96849.91;5002844;28;20046;-78
2024/03/22 11:42:39;;;;;;;4.85;4.18;;;;;;;22.99;33.21;96842.50;5017326;28;20046;-78
2024/03/22 11:45:08;;;;;;;7.35;4.97;;;;;;;23.01;32.91;96837.78;5010136;28;20114;-77
2024/03/22 11:47:36;;;;;;;5.43;4.47;;;;;;;23.12;33.01;96837.84;4986782;28;20057;-77
2024/03/22 11:50:02;;;;;;;5.18;4.60;;;;;;;23.24;32.96;96838.44;4992857;28;20057;-77
2024/03/22 11:52:29;;;;;;;6.03;4.35;;;;;;;23.32;32.02;96835.31;4977527;28;20042;-77
2024/03/22 11:54:56;;;;;;;5.70;4.15;;;;;;;23.33;33.04;96833.44;4976700;28;20054;-77
2024/03/22 11:57:24;;;;;;;4.15;3.58;;;;;;;23.44;33.21;96827.94;4977599;28;20059;-77
2024/03/22 11:59:51;;;;;;;7.85;4.70;;;;;;;23.51;31.79;96819.72;4979371;28;20050;-76
2024/03/22 12:02:18;;;;;;;4.20;3.65;;;;;;;23.49;31.97;96821.81;4997472;28;20433;-77
2024/03/22 12:04:48;;;;;;;6.85;4.70;;;;;;;23.51;32.11;96821.56;4991959;28;20050;-77
2024/03/22 12:07:14;;;;;;;6.80;5.90;;;;;;;23.53;32.74;96812.25;4986458;28;20058;-77
2024/03/22 12:09:42;;;;;;;9.70;4.55;;;;;;;23.53;31.62;96806.16;4981153;28;20522;-78
2024/03/22 12:12:09;;;;;;;7.07;4.95;;;;;;;23.50;32.10;96809.31;4987191;28;20066;-78
2024/03/22 12:14:36;;;;;;;6.30;4.55;;;;;;;23.35;31.41;96805.53;4997817;28;20054;-78
2024/03/22 12:17:01;;;;;;;5.93;4.65;;;;;;;23.04;31.27;96799.22;4987366;28;20528;-78
2024/03/22 12:19:28;;;;;;;6.63;4.10;;;;;;;22.87;31.92;96798.53;4988233;28;20136;-77
2024/03/22 12:21:55;;;;;;;9.32;5.32;;;;;;;22.71;32.45;96794.97;4990652;28;20054;-78
2024/03/22 12:24:22;;;;;;;7.95;5.15;;;;;;;22.48;32.86;96786.28;4977940;28;20054;-78
2024/03/22 12:26:48;;;;;;;7.40;4.28;;;;;;;22.38;32.27;96778.22;4983573;28;20042;-77
2024/03/22 12:29:16;;;;;;;9.13;6.32;;;;;;;22.28;32.03;96775.47;4978646;28;20101;-78
2024/03/22 12:31:42;;;;;;;9.07;5.18;;;;;;;22.08;32.69;96776.84;4981923;28;20050;-78
2024/03/22 12:34:09;;;;;;;7.57;4.03;;;;;;;21.86;33.58;96774.22;4980450;28;20043;-78
2024/03/22 12:36:35;;;;;;;5.18;2.78;;;;;;;21.83;33.22;96771.28;4975171;28;20054;-77
2024/03/22 12:39:03;;;;;;;4.10;3.13;;;;;;;21.85;32.29;96762.00;4976823;28;20054;-78
2024/03/22 12:41:35;;;;;;;4.63;3.33;;;;;;;21.80;31.99;96762.75;5003947;28;20077;-79
2024/03/22 13:01:26;;;;;;;4.45;3.00;;;;;;;21.23;31.85;96728.63;5187576;23;20056;-78
2024/03/22 13:03:53;;;;;;;3.10;2.80;;;;;;;21.05;31.83;96716.44;5016498;28;20060;-78
2024/03/22 13:06:20;;;;;;;3.03;2.50;;;;;;;20.94;32.37;96710.22;5014107;28;20120;-78